Time;durP1;ratioP1;P1;durP2;ratioP2;P2;SDS_P1;SDS_P2;PMS_P1;PMS_P2;Temp;Humidity;BMP_temperature;BMP_pressure;BME280_temperature;BME280_humidity;BME280_pressure;Samples;Min_cycle;Max_cycle;Signal;HPM_P1;HPM_P2
2022/06/21 00:02:22;;;;;;;8.80;4.63;;;10.30;99.90;;;;;;5109449;28;20672;-52
2022/06/21 00:04:51;;;;;;;8.00;4.90;;;10.30;99.90;;;;;;5109218;28;20207;-52
2022/06/21 00:07:24;;;;;;;8.63;4.67;;;10.30;99.90;;;;;;5109284;28;20223;-52
2022/06/21 00:09:52;;;;;;;7.90;4.60;;;10.30;99.90;;;;;;5109904;28;20223;-52
2022/06/21 00:12:21;;;;;;;11.70;5.47;;;10.20;99.90;;;;;;5110148;28;20239;-52
2022/06/21 00:14:50;;;;;;;8.47;4.83;;;10.20;99.90;;;;;;5109798;28;20278;-52
2022/06/21 00:17:21;;;;;;;7.30;4.70;;;10.20;99.90;;;;;;5109501;28;20280;-52
2022/06/21 00:19:50;;;;;;;8.17;4.90;;;10.20;99.90;;;;;;5110080;28;20212;-52
2022/06/21 00:22:20;;;;;;;11.67;5.10;;;10.20;99.90;;;;;;5101928;28;20236;-51
2022/06/21 00:24:51;;;;;;;8.53;5.27;;;10.10;99.90;;;;;;5092432;28;20293;-51
2022/06/21 00:27:22;;;;;;;7.47;5.23;;;10.20;99.90;;;;;;5094341;28;20257;-52
2022/06/21 00:29:50;;;;;;;9.53;5.27;;;10.10;99.90;;;;;;5089457;28;20204;-52
2022/06/21 00:32:20;;;;;;;5.47;4.43;;;10.10;99.90;;;;;;5088625;28;20257;-52
2022/06/21 00:34:49;;;;;;;7.23;4.60;;;10.10;99.90;;;;;;5089119;28;20295;-52
2022/06/21 00:37:21;;;;;;;9.23;5.73;;;10.00;99.90;;;;;;5088671;28;20665;-52
2022/06/21 00:39:51;;;;;;;6.47;4.93;;;10.00;99.90;;;;;;5089566;28;20261;-52
2022/06/21 00:42:27;;;;;;;9.77;5.40;;;9.90;99.90;;;;;;5089183;28;20206;-52
2022/06/21 00:45:03;;;;;;;8.37;5.37;;;9.90;99.90;;;;;;5088997;28;20213;-52
2022/06/21 00:47:36;;;;;;;7.17;5.60;;;9.90;99.90;;;;;;5089154;28;20281;-52
2022/06/21 00:50:16;;;;;;;9.10;4.80;;;9.90;99.90;;;;;;5089097;28;20210;-52
2022/06/21 00:52:54;;;;;;;6.67;4.80;;;9.90;99.90;;;;;;5088279;28;20208;-52
2022/06/21 00:55:33;;;;;;;7.10;5.10;;;9.90;99.90;;;;;;5089916;28;20211;-52
2022/06/21 00:58:01;;;;;;;7.70;5.47;;;9.80;99.90;;;;;;5092265;28;20221;-52
2022/06/21 01:00:34;;;;;;;8.80;5.80;;;9.80;99.90;;;;;;5092694;28;20206;-52
2022/06/21 01:03:06;;;;;;;6.07;4.73;;;9.70;99.90;;;;;;5092966;28;20204;-52
2022/06/21 01:05:39;;;;;;;5.57;4.90;;;9.70;99.90;;;;;;5092958;28;20208;-52
2022/06/21 01:08:10;;;;;;;7.40;4.90;;;9.70;99.90;;;;;;5092429;28;20571;-51
2022/06/21 01:10:41;;;;;;;6.13;5.20;;;9.70;99.90;;;;;;5092498;28;20204;-52
2022/06/21 01:13:12;;;;;;;6.23;4.80;;;9.70;99.90;;;;;;5092019;28;20740;-53
2022/06/21 01:15:45;;;;;;;5.80;5.07;;;9.70;99.90;;;;;;5092943;28;20208;-52
2022/06/21 01:18:16;;;;;;;8.10;4.87;;;9.70;99.90;;;;;;5092111;28;20793;-52
2022/06/21 01:20:51;;;;;;;8.57;5.33;;;9.60;99.90;;;;;;5092392;28;20232;-52
2022/06/21 01:23:33;;;;;;;9.63;5.70;;;9.60;99.90;;;;;;5091615;28;20658;-52
2022/06/21 01:26:20;;;;;;;8.43;5.53;;;9.50;99.90;;;;;;5092926;28;20212;-52
2022/06/21 01:28:51;;;;;;;7.03;5.27;;;9.50;99.90;;;;;;5091648;28;20224;-52
2022/06/21 01:31:20;;;;;;;7.37;4.63;;;9.40;99.90;;;;;;5092166;28;20240;-52
2022/06/21 01:33:48;;;;;;;8.33;5.10;;;9.50;99.90;;;;;;5077210;28;20266;-52
2022/06/21 01:36:21;;;;;;;6.63;5.27;;;9.50;99.90;;;;;;5092526;28;20243;-52
2022/06/21 01:38:53;;;;;;;6.73;5.20;;;9.50;99.90;;;;;;5091397;28;20222;-52
2022/06/21 01:41:27;;;;;;;6.37;5.40;;;9.50;99.90;;;;;;5092055;28;20623;-52
2022/06/21 01:44:00;;;;;;;7.47;5.70;;;9.50;99.90;;;;;;5091834;28;20285;-52
2022/06/21 01:46:32;;;;;;;6.23;5.27;;;9.40;99.90;;;;;;5091832;28;20216;-52
2022/06/21 01:49:05;;;;;;;5.00;4.60;;;9.30;99.90;;;;;;5091832;28;20251;-52
2022/06/21 01:51:39;;;;;;;7.40;5.00;;;9.40;99.90;;;;;;5091672;28;20626;-52
2022/06/21 01:54:10;;;;;;;4.90;4.43;;;9.40;99.90;;;;;;5091777;28;20204;-52
2022/06/21 01:56:40;;;;;;;9.07;5.23;;;9.50;99.90;;;;;;5091398;28;20240;-52
2022/06/21 01:59:14;;;;;;;6.50;4.70;;;9.50;99.90;;;;;;5091621;28;20228;-52
2022/06/21 02:01:47;;;;;;;5.67;5.07;;;9.50;99.90;;;;;;5090897;28;20216;-52
2022/06/21 02:04:20;;;;;;;6.03;4.80;;;9.50;99.90;;;;;;5091766;28;20282;-52
2022/06/21 02:06:50;;;;;;;6.80;5.10;;;9.30;99.90;;;;;;5091359;28;20204;-52
2022/06/21 02:09:24;;;;;;;6.73;5.33;;;9.30;99.90;;;;;;5090484;28;20782;-52
2022/06/21 02:11:57;;;;;;;7.63;5.27;;;9.30;99.90;;;;;;5090339;28;20215;-52
2022/06/21 02:14:30;;;;;;;8.57;5.60;;;9.30;99.90;;;;;;5090434;28;20196;-52
2022/06/21 02:17:09;;;;;;;7.00;5.13;;;9.30;99.90;;;;;;5091294;28;20208;-52
2022/06/21 02:19:41;;;;;;;8.37;5.10;;;9.20;99.90;;;;;;5091321;28;20196;-52
2022/06/21 02:22:14;;;;;;;7.00;5.67;;;9.20;99.90;;;;;;5091017;28;20209;-52
2022/06/21 02:24:42;;;;;;;6.80;5.57;;;9.20;99.90;;;;;;5090646;28;20631;-52
2022/06/21 02:27:13;;;;;;;5.77;5.00;;;9.20;99.90;;;;;;5091257;28;20239;-52
2022/06/21 02:29:44;;;;;;;6.80;5.07;;;9.30;99.90;;;;;;5090977;28;20263;-52
2022/06/21 02:32:20;;;;;;;8.07;5.50;;;9.30;99.90;;;;;;5085547;28;20201;-52
2022/06/21 02:34:51;;;;;;;6.67;5.20;;;9.20;99.90;;;;;;5083655;28;20212;-52
2022/06/21 02:37:19;;;;;;;10.30;4.77;;;9.20;99.90;;;;;;5090092;28;20230;-52
2022/06/21 02:39:48;;;;;;;8.67;5.30;;;9.30;99.90;;;;;;5091325;28;20200;-52
2022/06/21 02:42:22;;;;;;;5.57;4.93;;;9.20;99.90;;;;;;5090788;28;20207;-52
2022/06/21 02:44:56;;;;;;;5.87;4.33;;;9.20;99.90;;;;;;5091026;28;20228;-52
2022/06/21 02:47:29;;;;;;;6.83;4.77;;;9.20;99.90;;;;;;5090482;28;20230;-52
2022/06/21 02:50:01;;;;;;;10.27;5.93;;;9.20;99.90;;;;;;5091095;28;20228;-52
2022/06/21 02:52:33;;;;;;;8.80;5.30;;;9.30;99.90;;;;;;5089754;28;20242;-52
2022/06/21 02:55:23;;;;;;;7.30;5.33;;;9.30;99.90;;;;;;5090872;28;20673;-52
2022/06/21 02:57:57;;;;;;;8.07;5.43;;;9.20;99.90;;;;;;5090439;28;20288;-52
2022/06/21 03:00:26;;;;;;;7.07;5.73;;;9.20;99.90;;;;;;5090809;28;20632;-52
2022/06/21 03:02:55;;;;;;;10.37;5.50;;;9.20;99.90;;;;;;5090022;28;20253;-52
2022/06/21 03:05:25;;;;;;;6.43;5.43;;;9.20;99.90;;;;;;5090616;28;20596;-52
2022/06/21 03:07:58;;;;;;;7.83;5.50;;;9.20;99.90;;;;;;5090437;28;20313;-52
2022/06/21 03:10:29;;;;;;;7.03;5.47;;;9.20;99.90;;;;;;5090167;28;20249;-52
2022/06/21 03:13:02;;;;;;;8.67;5.63;;;9.20;99.90;;;;;;5090287;28;20250;-52
2022/06/21 03:15:31;;;;;;;9.30;5.70;;;9.20;99.90;;;;;;5090087;28;20210;-52
2022/06/21 03:18:02;;;;;;;8.17;5.67;;;9.20;99.90;;;;;;5089170;28;20238;-52
2022/06/21 03:20:32;;;;;;;7.30;5.43;;;9.20;99.90;;;;;;5090271;28;20249;-52
2022/06/21 03:23:01;;;;;;;5.80;5.30;;;9.10;99.90;;;;;;5089219;28;20204;-52
2022/06/21 03:25:35;;;;;;;7.20;5.40;;;9.10;99.90;;;;;;5089631;28;20208;-52
2022/06/21 03:28:03;;;;;;;8.10;5.57;;;9.10;99.90;;;;;;5090014;28;20273;-52
2022/06/21 03:30:35;;;;;;;8.13;5.60;;;9.10;99.90;;;;;;5089375;28;20277;-52
2022/06/21 03:33:05;;;;;;;6.33;5.73;;;9.10;99.90;;;;;;5077529;28;20217;-52
2022/06/21 03:35:35;;;;;;;10.20;5.80;;;9.10;99.90;;;;;;5088625;28;20669;-52
2022/06/21 03:38:04;;;;;;;8.07;5.60;;;9.10;99.90;;;;;;5089397;28;20220;-52
2022/06/21 03:43:22;;;;;;;8.30;5.17;;;9.10;99.90;;;;;;5089318;28;20211;-52
2022/06/21 03:45:55;;;;;;;5.67;4.77;;;9.10;99.90;;;;;;5089489;28;20208;-52
2022/06/21 03:48:29;;;;;;;8.70;5.67;;;9.10;99.90;;;;;;5089524;28;20285;-52
2022/06/21 03:51:06;;;;;;;7.93;5.20;;;9.20;99.90;;;;;;5093191;28;20247;-52
2022/06/21 03:53:39;;;;;;;5.80;5.20;;;9.30;99.90;;;;;;5098204;28;20212;-51
2022/06/21 03:56:12;;;;;;;6.00;4.80;;;9.40;99.90;;;;;;5097572;28;20827;-52
2022/06/21 03:58:49;;;;;;;6.10;5.50;;;9.40;99.90;;;;;;5090115;28;20263;-52
2022/06/21 04:01:26;;;;;;;5.40;4.70;;;9.50;99.90;;;;;;5089615;28;20203;-52
2022/06/21 04:03:58;;;;;;;9.47;4.93;;;9.60;99.90;;;;;;5089497;28;20214;-52
2022/06/21 04:06:34;;;;;;;7.07;5.03;;;9.60;99.90;;;;;;5089734;28;20204;-52
2022/06/21 04:09:07;;;;;;;5.53;4.93;;;9.70;99.90;;;;;;5089402;28;20716;-52
2022/06/21 04:11:40;;;;;;;7.00;5.27;;;9.80;99.90;;;;;;5089436;28;20738;-52
2022/06/21 04:14:15;;;;;;;5.73;4.90;;;10.20;99.90;;;;;;5089875;28;20204;-53
2022/06/21 04:16:54;;;;;;;6.80;4.10;;;11.00;99.90;;;;;;5088502;28;20199;-53
2022/06/21 04:19:28;;;;;;;6.67;4.00;;;11.60;99.90;;;;;;5089938;28;20624;-52
2022/06/21 04:22:04;;;;;;;6.00;3.80;;;12.10;99.90;;;;;;5105060;28;20207;-53
2022/06/21 04:24:40;;;;;;;4.43;3.70;;;12.80;99.90;;;;;;5110104;28;20291;-52
2022/06/21 04:27:22;;;;;;;4.77;3.60;;;13.40;99.90;;;;;;5109700;28;20203;-52
2022/06/21 04:29:57;;;;;;;4.10;3.47;;;14.10;99.90;;;;;;5111784;28;20243;-51
2022/06/21 04:32:30;;;;;;;5.80;3.20;;;14.70;99.90;;;;;;5102090;28;20208;-52
2022/06/21 04:35:04;;;;;;;5.43;3.15;;;15.10;99.90;;;;;;5087647;28;20336;-52
2022/06/21 04:37:39;;;;;;;5.65;3.40;;;15.60;99.90;;;;;;5093357;28;20220;-53
2022/06/21 04:40:15;;;;;;;4.20;3.17;;;15.90;99.90;;;;;;5093135;28;20616;-53
2022/06/21 04:42:49;;;;;;;5.10;3.05;;;16.40;99.90;;;;;;5080813;28;20636;-53
2022/06/21 04:45:22;;;;;;;4.22;2.95;;;16.70;99.90;;;;;;5092378;28;20775;-53
2022/06/21 04:48:04;;;;;;;5.15;3.10;;;17.10;99.90;;;;;;5093524;28;20232;-53
2022/06/21 04:50:39;;;;;;;5.97;3.08;;;17.60;99.90;;;;;;5088453;28;20704;-53
2022/06/21 04:53:16;;;;;;;2.63;2.42;;;18.00;99.90;;;;;;5092556;28;20200;-53
2022/06/21 04:55:51;;;;;;;4.47;2.83;;;18.20;99.90;;;;;;5093505;28;20277;-52
2022/06/21 04:58:19;;;;;;;4.03;2.60;;;18.50;99.90;;;;;;5093868;28;20292;-53
2022/06/21 05:00:47;;;;;;;4.40;2.70;;;18.70;99.90;;;;;;5093242;28;20617;-53
2022/06/21 05:03:29;;;;;;;4.53;3.00;;;19.00;99.90;;;;;;5093189;28;20273;-52
2022/06/21 05:05:59;;;;;;;5.63;2.78;;;19.30;99.90;;;;;;5092724;28;20208;-52
2022/06/21 05:08:28;;;;;;;2.92;2.63;;;19.30;99.90;;;;;;5093109;28;20229;-53
2022/06/21 05:11:00;;;;;;;4.32;2.60;;;19.40;99.90;;;;;;5092881;28;20251;-53
2022/06/21 05:13:32;;;;;;;4.45;2.60;;;19.40;99.90;;;;;;5091920;28;20208;-51
2022/06/21 05:16:06;;;;;;;6.90;3.05;;;19.70;99.90;;;;;;5093016;28;20208;-51
2022/06/21 05:18:40;;;;;;;5.78;3.00;;;19.80;99.90;;;;;;5092046;28;20890;-50
2022/06/21 05:21:14;;;;;;;7.97;2.80;;;20.30;99.90;;;;;;5092710;28;20226;-51
2022/06/21 05:23:43;;;;;;;5.03;3.08;;;20.30;99.90;;;;;;5080132;28;20838;-51
2022/06/21 05:26:17;;;;;;;4.60;2.65;;;20.70;99.90;;;;;;5092094;28;20208;-50
2022/06/21 05:28:50;;;;;;;4.32;2.72;;;20.80;99.90;;;;;;5091520;28;20251;-51
2022/06/21 05:31:22;;;;;;;5.97;2.80;;;21.10;99.90;;;;;;5090937;28;20224;-50
2022/06/21 05:33:54;;;;;;;5.15;3.08;;;21.40;99.90;;;;;;5077548;28;20236;-51
2022/06/21 05:36:27;;;;;;;4.28;2.80;;;21.60;99.90;;;;;;5092597;28;20228;-51
2022/06/21 05:38:59;;;;;;;5.80;3.17;;;21.70;99.90;;;;;;5092403;28;20263;-50
2022/06/21 05:41:30;;;;;;;5.22;3.10;;;22.00;99.90;;;;;;5091637;28;20597;-50
2022/06/21 05:44:01;;;;;;;4.68;2.83;;;22.10;99.90;;;;;;5092112;28;20205;-50
2022/06/21 05:46:33;;;;;;;4.32;2.80;;;22.00;99.90;;;;;;5091838;28;20226;-51
2022/06/21 05:49:08;;;;;;;4.88;2.70;;;22.30;99.90;;;;;;5092303;28;20713;-51
2022/06/21 05:51:36;;;;;;;5.82;2.80;;;22.50;99.90;;;;;;5092323;28;20215;-51
2022/06/21 05:54:09;;;;;;;3.78;3.00;;;22.50;99.90;;;;;;5091630;28;20200;-51
2022/06/21 05:56:39;;;;;;;4.10;2.88;;;23.10;99.90;;;;;;5092171;28;20212;-51
2022/06/21 05:59:12;;;;;;;3.72;2.70;;;23.10;99.90;;;;;;5092211;28;20228;-51
2022/06/21 06:01:45;;;;;;;6.10;2.70;;;23.40;99.90;;;;;;5091652;28;20204;-51
2022/06/21 06:04:23;;;;;;;3.55;2.63;;;23.20;99.90;;;;;;5092159;28;20248;-51
2022/06/21 06:06:53;;;;;;;4.85;2.80;;;23.40;99.90;;;;;;5091647;28;20222;-51
2022/06/21 06:09:26;;;;;;;4.18;2.65;;;23.60;99.90;;;;;;5091949;28;20228;-51
2022/06/21 06:12:01;;;;;;;4.50;2.80;;;23.70;99.60;;;;;;5091104;28;20223;-51
2022/06/21 06:14:38;;;;;;;4.45;2.53;;;23.90;99.90;;;;;;5091382;28;20251;-51
2022/06/21 06:17:17;;;;;;;3.35;2.47;;;24.30;99.30;;;;;;5091303;28;20255;-51
2022/06/21 06:19:51;;;;;;;3.83;2.83;;;24.30;98.60;;;;;;5091305;28;20208;-51
2022/06/21 06:22:25;;;;;;;5.47;2.92;;;24.60;98.20;;;;;;5090545;28;20215;-51
2022/06/21 06:25:01;;;;;;;3.63;2.60;;;24.80;97.60;;;;;;5090965;28;20315;-51
2022/06/21 06:27:45;;;;;;;3.53;2.40;;;24.70;97.20;;;;;;5091630;28;20261;-51
2022/06/21 06:30:17;;;;;;;6.85;2.67;;;24.90;97.80;;;;;;5090748;28;20242;-51
2022/06/21 06:32:54;;;;;;;6.95;3.03;;;24.90;98.10;;;;;;5080926;28;20209;-51
2022/06/21 06:35:26;;;;;;;3.00;2.67;;;25.00;97.90;;;;;;5088216;28;20207;-51
2022/06/21 06:37:54;;;;;;;6.18;2.97;;;25.20;97.20;;;;;;5091116;28;20228;-51
2022/06/21 06:40:27;;;;;;;5.32;2.28;;;25.50;97.80;;;;;;5090988;28;20204;-51
2022/06/21 06:43:00;;;;;;;3.88;2.42;;;25.50;96.70;;;;;;5091033;28;20212;-51
2022/06/21 06:45:34;;;;;;;4.82;2.65;;;25.50;96.90;;;;;;5090608;28;20253;-50
2022/06/21 06:48:06;;;;;;;5.15;3.30;;;25.40;97.30;;;;;;5089934;28;20219;-51
2022/06/21 06:50:41;;;;;;;5.90;2.60;;;25.60;97.30;;;;;;5090853;28;20273;-51
2022/06/21 06:53:14;;;;;;;3.60;2.63;;;25.90;98.00;;;;;;5092667;28;20216;-51
2022/06/21 06:55:46;;;;;;;3.28;2.78;;;26.20;96.80;;;;;;5090434;28;20209;-51
2022/06/21 06:58:32;;;;;;;3.00;2.70;;;26.10;97.50;;;;;;5093083;28;20224;-51
2022/06/21 07:01:04;;;;;;;4.20;3.08;;;26.10;97.90;;;;;;5090608;28;20200;-50
2022/06/21 07:03:36;;;;;;;3.63;2.92;;;26.00;97.20;;;;;;5090356;28;20287;-51
2022/06/21 07:06:12;;;;;;;4.07;2.85;;;26.00;98.00;;;;;;5090400;28;20258;-51
2022/06/21 07:08:46;;;;;;;3.20;2.47;;;26.10;97.50;;;;;;5090008;28;20234;-51
2022/06/21 07:11:20;;;;;;;6.10;3.38;;;26.00;97.80;;;;;;5090676;28;20220;-51
2022/06/21 07:13:48;;;;;;;4.68;2.90;;;26.20;96.50;;;;;;5089844;28;20226;-51
2022/06/21 07:16:20;;;;;;;7.07;3.00;;;26.10;97.60;;;;;;5090620;28;20208;-50
2022/06/21 07:18:51;;;;;;;5.07;2.95;;;26.00;96.30;;;;;;5090410;28;20239;-49
2022/06/21 07:21:23;;;;;;;4.72;2.80;;;25.60;95.70;;;;;;5095252;28;20286;-49
2022/06/21 07:23:53;;;;;;;4.82;2.65;;;25.70;96.50;;;;;;5093956;28;20225;-50
2022/06/21 07:26:27;;;;;;;4.80;2.85;;;25.90;95.50;;;;;;5090139;28;20212;-51
2022/06/21 07:28:59;;;;;;;5.75;3.00;;;26.50;95.90;;;;;;5089452;28;20258;-51
2022/06/21 07:31:32;;;;;;;4.45;3.00;;;26.50;95.60;;;;;;5089879;28;20235;-51
2022/06/21 07:34:06;;;;;;;5.22;3.17;;;26.30;95.80;;;;;;5075253;28;20299;-52
2022/06/21 07:36:40;;;;;;;7.70;2.85;;;26.30;95.10;;;;;;5077321;28;20233;-50
2022/06/21 07:39:14;;;;;;;4.95;2.85;;;26.50;96.20;;;;;;5084183;28;20280;-50
2022/06/21 07:41:48;;;;;;;3.28;2.60;;;26.30;94.70;;;;;;5089621;28;20204;-50
2022/06/21 07:44:24;;;;;;;6.25;3.10;;;26.30;94.70;;;;;;5089210;28;20209;-51
2022/06/21 07:47:00;;;;;;;4.13;2.80;;;25.90;94.50;;;;;;5089206;28;20200;-51
2022/06/21 07:49:37;;;;;;;3.70;2.40;;;25.80;94.80;;;;;;5089553;28;20224;-51
2022/06/21 07:52:15;;;;;;;3.40;2.85;;;25.90;94.40;;;;;;5089145;28;20227;-51
2022/06/21 07:54:48;;;;;;;4.82;2.78;;;25.80;93.40;;;;;;5082505;28;20227;-50
2022/06/21 07:57:22;;;;;;;5.13;2.70;;;25.60;92.90;;;;;;5088836;28;20235;-50
2022/06/21 07:59:54;;;;;;;4.53;2.90;;;25.80;94.20;;;;;;5088986;28;20617;-50
2022/06/21 08:08:16;;;;;;;4.03;2.80;;;25.70;93.50;;;;;;5088564;28;20247;-51
2022/06/21 08:10:49;;;;;;;6.18;3.03;;;25.60;93.80;;;;;;5089419;28;20208;-51
2022/06/21 08:13:18;;;;;;;4.97;2.78;;;25.20;93.00;;;;;;5089235;28;20261;-50
2022/06/21 08:15:51;;;;;;;5.10;2.95;;;25.00;93.30;;;;;;5088605;28;20196;-51
2022/06/21 08:18:25;;;;;;;4.38;3.10;;;24.60;93.80;;;;;;5089027;28;20259;-51
2022/06/21 08:20:59;;;;;;;3.10;2.80;;;24.50;94.50;;;;;;5089286;28;20212;-50
2022/06/21 08:23:33;;;;;;;5.72;3.33;;;24.30;94.70;;;;;;5087888;28;20196;-51
2022/06/21 08:26:06;;;;;;;5.63;3.20;;;24.20;94.70;;;;;;5088220;28;20261;-51
2022/06/21 08:28:41;;;;;;;4.25;3.00;;;24.00;94.80;;;;;;5088830;28;20277;-51
2022/06/21 08:31:15;;;;;;;5.63;3.40;;;23.80;95.70;;;;;;5091785;28;20728;-51
2022/06/21 08:33:49;;;;;;;5.20;2.80;;;23.80;94.90;;;;;;5074767;28;20199;-50
2022/06/21 08:36:23;;;;;;;4.63;2.90;;;23.60;95.00;;;;;;5089358;28;20207;-50
2022/06/21 08:38:59;;;;;;;5.82;3.03;;;23.60;95.20;;;;;;5088297;28;20273;-50
2022/06/21 08:41:58;;;;;;;4.88;2.95;;;23.80;95.90;;;;;;5088724;28;20211;-50
2022/06/21 08:45:40;;;;;;;5.85;3.17;;;23.70;94.70;;;;;;5060850;28;20289;-51
2022/06/21 08:48:14;;;;;;;4.63;3.00;;;23.70;95.90;;;;;;5087600;28;20274;-51
2022/06/21 08:51:01;;;;;;;5.53;2.90;;;23.50;96.00;;;;;;5088809;28;20215;-50
2022/06/21 08:53:43;;;;;;;4.22;3.05;;;23.60;97.40;;;;;;5087837;28;20231;-51
2022/06/21 08:56:19;;;;;;;6.82;3.13;;;23.40;95.20;;;;;;5088209;28;20212;-50
2022/06/21 08:59:04;;;;;;;3.83;2.78;;;23.30;96.40;;;;;;5097422;28;20234;-53
2022/06/21 09:01:39;;;;;;;4.07;3.10;;;23.40;95.10;;;;;;5108368;28;20208;-51
2022/06/21 09:04:24;;;;;;;6.80;3.55;;;23.40;95.00;;;;;;5090490;28;20214;-50
2022/06/21 09:07:07;;;;;;;5.45;3.05;;;23.20;95.30;;;;;;5097141;28;20218;-50
2022/06/21 09:09:52;;;;;;;4.75;3.22;;;23.20;95.20;;;;;;5098471;28;20228;-51
2022/06/21 09:12:31;;;;;;;4.60;3.60;;;23.10;95.10;;;;;;5108370;28;20306;-51
2022/06/21 09:15:26;;;;;;;3.45;2.78;;;23.20;95.20;;;;;;5109561;28;20683;-50
2022/06/21 09:18:06;;;;;;;5.25;3.40;;;23.40;97.10;;;;;;5087671;28;20246;-50
2022/06/21 09:20:43;;;;;;;4.57;3.75;;;23.40;98.70;;;;;;5112973;28;20211;-51
2022/06/21 09:23:37;;;;;;;5.65;3.60;;;23.30;97.40;;;;;;5092889;28;20273;-51
2022/06/21 09:26:09;;;;;;;6.43;3.40;;;23.40;97.80;;;;;;5111760;28;20234;-51
2022/06/21 09:28:51;;;;;;;4.57;3.60;;;23.40;97.60;;;;;;5111473;28;20756;-50
2022/06/21 09:31:28;;;;;;;5.80;3.88;;;23.40;99.40;;;;;;5112283;28;20264;-51
2022/06/21 09:34:02;;;;;;;5.32;3.55;;;23.10;99.30;;;;;;5078276;28;20291;-50
2022/06/21 09:36:44;;;;;;;6.20;3.63;;;23.10;99.50;;;;;;5091732;28;20226;-51
2022/06/21 09:39:20;;;;;;;4.97;3.67;;;23.00;99.80;;;;;;5091624;28;20228;-51
2022/06/21 09:41:55;;;;;;;6.15;3.38;;;23.20;99.40;;;;;;5091736;28;20200;-51
2022/06/21 09:44:32;;;;;;;5.32;3.70;;;23.50;99.50;;;;;;5079788;28;20756;-51
2022/06/21 09:47:08;;;;;;;5.68;3.20;;;23.60;99.70;;;;;;5085972;28;20240;-51
2022/06/21 09:49:43;;;;;;;6.47;3.55;;;23.70;99.90;;;;;;5091381;28;20223;-51
2022/06/21 09:52:21;;;;;;;5.38;3.30;;;23.70;99.20;;;;;;5090599;28;20727;-51
2022/06/21 09:54:57;;;;;;;5.13;3.20;;;23.80;99.50;;;;;;5091733;28;20192;-51
2022/06/21 09:57:30;;;;;;;3.72;3.05;;;23.90;99.90;;;;;;5091076;28;20200;-51
2022/06/21 10:00:09;;;;;;;5.43;3.08;;;23.90;99.50;;;;;;5091180;28;20670;-52
2022/06/21 10:02:54;;;;;;;4.90;3.08;;;23.70;98.10;;;;;;5090994;28;20199;-51
2022/06/21 10:05:29;;;;;;;5.53;3.15;;;23.50;97.70;;;;;;5092086;28;20212;-50
2022/06/21 10:08:15;;;;;;;5.45;3.55;;;23.50;98.60;;;;;;5091096;28;20285;-51
2022/06/21 10:10:55;;;;;;;3.95;2.78;;;23.60;97.60;;;;;;5091962;28;20248;-50
2022/06/21 10:13:45;;;;;;;4.18;2.97;;;23.60;97.80;;;;;;5078897;28;20231;-51
2022/06/21 10:16:29;;;;;;;3.70;2.63;;;23.50;99.20;;;;;;5092189;28;20208;-51
2022/06/21 10:19:11;;;;;;;3.75;2.25;;;23.80;99.60;;;;;;5091332;28;20236;-51
2022/06/21 10:21:56;;;;;;;2.38;1.98;;;24.00;96.90;;;;;;5088022;28;20241;-51
2022/06/21 10:24:52;;;;;;;3.15;1.88;;;24.10;96.50;;;;;;5090272;28;20216;-51
2022/06/21 10:27:38;;;;;;;6.60;2.83;;;23.90;94.80;;;;;;5091139;28;21004;-51
2022/06/21 10:30:39;;;;;;;4.32;2.78;;;23.70;95.60;;;;;;5090807;28;20273;-51
2022/06/21 10:33:29;;;;;;;3.17;2.13;;;23.50;97.20;;;;;;5077564;28;20220;-51
2022/06/21 10:36:15;;;;;;;5.55;2.55;;;23.70;97.30;;;;;;5078277;28;20242;-51
2022/06/21 10:39:07;;;;;;;3.88;2.40;;;23.80;95.40;;;;;;5090931;28;20260;-49
2022/06/21 10:42:46;;;;;;;2.55;2.15;;;23.80;93.90;;;;;;5090808;28;20212;-50
2022/06/21 10:44:52;;;;;;;5.88;2.60;;;23.50;94.80;;;;;;5090529;28;20200;-51
2022/06/21 10:47:32;;;;;;;2.65;1.98;;;23.60;95.20;;;;;;5089847;28;20246;-51
2022/06/21 10:50:15;;;;;;;2.95;2.00;;;23.60;93.10;;;;;;5090603;28;20258;-50
2022/06/21 10:53:20;;;;;;;1.90;1.70;;;23.70;92.70;;;;;;5088671;28;20227;-51
2022/06/21 10:58:55;;;;;;;3.47;1.88;;;23.50;91.40;;;;;;5088994;28;20239;-51
2022/06/21 11:01:30;;;;;;;2.78;1.65;;;23.40;92.10;;;;;;5094559;28;20204;-51
2022/06/21 11:04:33;;;;;;;2.15;1.45;;;23.60;92.30;;;;;;5089007;28;20625;-51
2022/06/21 11:07:09;;;;;;;2.83;1.90;;;23.70;91.60;;;;;;5089551;28;20203;-51
2022/06/21 11:09:44;;;;;;;4.20;2.10;;;23.80;93.70;;;;;;5083278;28;20256;-51
2022/06/21 11:15:16;;;;;;;5.32;2.00;;;23.70;94.60;;;;;;5077983;28;20211;-51
2022/06/21 11:17:52;;;;;;;2.85;1.90;;;23.60;95.20;;;;;;5089532;28;20277;-51
2022/06/21 11:20:29;;;;;;;5.30;2.08;;;23.50;94.90;;;;;;5089891;28;20242;-52
2022/06/21 11:23:15;;;;;;;2.47;1.67;;;23.50;94.70;;;;;;5089320;28;20212;-51
2022/06/21 11:25:53;;;;;;;2.83;1.60;;;23.70;94.20;;;;;;5089982;28;20258;-51
2022/06/21 11:28:36;;;;;;;3.28;1.83;;;23.70;92.30;;;;;;5090238;28;20636;-51
2022/06/21 11:31:16;;;;;;;2.97;1.50;;;24.00;92.90;;;;;;5090022;28;20236;-51
2022/06/21 11:34:00;;;;;;;2.28;1.65;;;24.20;92.60;;;;;;5075208;28;20226;-51
2022/06/21 11:36:34;;;;;;;2.80;1.60;;;24.30;93.10;;;;;;5090119;28;20235;-51
2022/06/21 11:39:15;;;;;;;2.03;1.63;;;24.50;92.50;;;;;;5088641;28;20259;-50
2022/06/21 11:42:05;;;;;;;3.38;1.60;;;24.50;91.80;;;;;;5089741;28;20676;-51
2022/06/21 11:45:09;;;;;;;2.00;1.38;;;24.70;91.40;;;;;;5089367;28;20196;-51
2022/06/21 11:47:59;;;;;;;4.95;2.20;;;24.70;91.00;;;;;;5056041;28;20224;-51
2022/06/21 11:50:39;;;;;;;1.75;1.50;;;24.90;90.80;;;;;;5089494;28;20212;-51
2022/06/21 11:53:26;;;;;;;1.75;1.40;;;24.90;86.60;;;;;;5089310;28;20227;-51
2022/06/21 11:56:00;;;;;;;2.55;1.50;;;24.80;85.70;;;;;;5089278;28;20204;-51
2022/06/21 11:58:36;;;;;;;2.13;1.55;;;24.40;86.10;;;;;;5089528;28;20231;-52
2022/06/21 12:01:15;;;;;;;2.00;1.63;;;24.50;86.10;;;;;;5088297;28;20696;-51
2022/06/21 12:03:53;;;;;;;2.25;1.60;;;24.60;91.60;;;;;;5089336;28;20833;-51
2022/06/21 12:06:29;;;;;;;4.85;2.20;;;24.60;90.10;;;;;;5088800;28;20299;-52
2022/06/21 12:09:12;;;;;;;4.88;1.90;;;24.50;89.40;;;;;;5088739;28;20285;-53
2022/06/21 12:12:10;;;;;;;2.85;1.90;;;24.50;91.50;;;;;;5089332;28;20196;-51
2022/06/21 12:14:48;;;;;;;3.03;2.10;;;24.50;88.30;;;;;;5069046;28;20278;-51
2022/06/21 12:17:20;;;;;;;2.28;1.85;;;24.40;92.60;;;;;;5088868;28;20222;-52
2022/06/21 12:20:04;;;;;;;2.75;2.00;;;24.80;94.30;;;;;;5089502;28;20208;-51
2022/06/21 12:22:37;;;;;;;3.67;2.17;;;24.90;93.10;;;;;;5083260;28;20254;-51
2022/06/21 12:25:10;;;;;;;2.63;2.28;;;24.90;93.80;;;;;;5084202;28;20208;-51
2022/06/21 12:27:40;;;;;;;3.33;2.08;;;25.00;94.20;;;;;;5088175;28;20769;-50
2022/06/21 12:30:17;;;;;;;3.17;1.98;;;24.80;92.80;;;;;;5088080;28;20208;-51
2022/06/21 12:32:46;;;;;;;4.90;2.15;;;24.90;94.10;;;;;;5085224;28;20208;-55
2022/06/21 12:35:17;;;;;;;3.25;2.47;;;24.70;93.50;;;;;;5088295;28;20687;-51
2022/06/21 12:37:48;;;;;;;4.00;2.55;;;24.50;94.40;;;;;;5088243;28;20223;-50
2022/06/21 12:40:27;;;;;;;3.78;2.42;;;24.40;94.60;;;;;;5088599;28;20231;-51
2022/06/21 12:43:20;;;;;;;3.80;2.50;;;24.40;94.20;;;;;;5088400;28;20249;-51
2022/06/21 12:45:59;;;;;;;5.15;2.70;;;24.70;94.40;;;;;;5087172;28;20200;-51
2022/06/21 12:49:03;;;;;;;3.13;2.45;;;24.70;93.00;;;;;;5081014;28;20255;-51
2022/06/21 12:51:40;;;;;;;4.47;2.60;;;24.90;95.00;;;;;;5110116;28;20290;-50
2022/06/21 12:54:38;;;;;;;4.68;2.72;;;24.90;94.70;;;;;;5083997;28;20231;-51
2022/06/21 12:57:21;;;;;;;5.43;2.50;;;25.10;94.10;;;;;;5104000;28;20210;-51
2022/06/21 13:00:15;;;;;;;2.80;2.30;;;25.00;94.10;;;;;;5089731;28;20238;-52
2022/06/21 13:03:24;;;;;;;3.55;2.53;;;25.20;95.90;;;;;;5110108;28;20200;-50
2022/06/21 13:06:11;;;;;;;4.82;2.47;;;25.10;95.50;;;;;;5112443;28;20223;-51
2022/06/21 13:09:02;;;;;;;4.25;2.53;;;25.20;94.30;;;;;;5104174;28;20288;-51
2022/06/21 13:11:43;;;;;;;3.67;2.67;;;25.00;93.20;;;;;;5112391;28;20203;-50
2022/06/21 13:14:31;;;;;;;6.32;2.67;;;25.10;96.90;;;;;;5111085;28;20296;-51
2022/06/21 13:17:13;;;;;;;3.67;2.30;;;25.10;96.40;;;;;;5107578;28;20752;-52
2022/06/21 13:19:52;;;;;;;3.85;2.47;;;24.90;95.50;;;;;;5104957;28;20211;-51
2022/06/21 13:22:34;;;;;;;3.90;2.60;;;24.80;94.50;;;;;;5092669;28;20253;-51
2022/06/21 13:25:21;;;;;;;3.90;2.60;;;24.80;95.00;;;;;;5113211;28;20571;-51
2022/06/21 13:28:04;;;;;;;4.40;2.53;;;24.90;96.20;;;;;;5108398;28;20279;-51
2022/06/21 13:30:48;;;;;;;4.72;2.40;;;24.80;96.10;;;;;;5110169;28;20622;-51
2022/06/21 13:33:21;;;;;;;5.93;2.78;;;24.70;94.90;;;;;;5084880;28;20209;-51
2022/06/21 13:35:57;;;;;;;3.85;2.28;;;24.60;96.60;;;;;;5080499;28;20201;-52
2022/06/21 13:38:36;;;;;;;5.88;2.58;;;24.50;95.30;;;;;;5091911;28;20743;-52
2022/06/21 13:42:37;;;;;;;3.67;2.55;;;24.50;94.70;;;;;;5079561;28;20212;-52
2022/06/21 13:44:05;;;;;;;4.30;3.00;;;24.60;95.10;;;;;;5091527;28;20254;-52
2022/06/21 13:46:37;;;;;;;3.92;2.65;;;24.30;94.70;;;;;;5091909;28;20213;-51
2022/06/21 13:49:20;;;;;;;3.53;2.60;;;24.30;95.60;;;;;;5091742;28;20231;-52
2022/06/21 13:51:53;;;;;;;4.30;2.53;;;24.30;95.40;;;;;;5092082;28;20208;-52
2022/06/21 13:54:29;;;;;;;5.15;2.70;;;24.20;96.20;;;;;;5091779;28;20216;-52